createdAt,value
2022-09-12T00:00:43.408Z,19.10
2022-09-12T00:03:10.529Z,13.07
2022-09-12T00:05:51.260Z,23.15
2022-09-12T00:08:25.144Z,15.50
2022-09-12T00:10:52.499Z,7.80
2022-09-12T00:13:26.170Z,11.45
2022-09-12T00:15:53.393Z,10.93
2022-09-12T00:18:27.154Z,11.68
2022-09-12T00:20:54.372Z,13.55
2022-09-12T00:23:28.314Z,12.57
2022-09-12T00:25:55.561Z,11.88
2022-09-12T00:28:22.744Z,11.20
2022-09-12T00:30:56.237Z,13.90
2022-09-12T00:33:30.245Z,11.75
2022-09-12T00:36:04.291Z,16.73
2022-09-12T00:38:31.734Z,7.95
2022-09-12T00:41:05.211Z,11.75
2022-09-12T00:43:36.933Z,9.88
2022-09-12T00:46:22.393Z,11.32
2022-09-12T00:49:09.713Z,9.23
2022-09-12T00:51:44.264Z,11.85
2022-09-12T00:54:13.255Z,15.25
2022-09-12T00:56:49.236Z,17.20
2022-09-12T00:59:19.538Z,12.25
2022-09-12T01:01:55.279Z,13.30
2022-09-12T01:04:24.127Z,8.68
2022-09-12T01:06:58.503Z,12.52
2022-09-12T01:09:26.327Z,17.20
2022-09-12T01:11:54.018Z,21.17
2022-09-12T01:14:28.303Z,15.57
2022-09-12T01:16:55.570Z,12.75
2022-09-12T01:19:48.235Z,9.60
2022-09-12T01:22:44.880Z,7.88
2022-09-12T01:25:21.432Z,8.82
2022-09-12T01:28:01.028Z,16.20
2022-09-12T01:30:51.354Z,14.57
2022-09-12T01:33:39.147Z,10.13
2022-09-12T01:36:13.431Z,11.05
2022-09-12T01:38:47.329Z,13.35
2022-09-12T01:41:24.438Z,9.48
2022-09-12T01:43:51.940Z,9.00
2022-09-12T01:46:22.111Z,13.38
2022-09-12T01:49:03.284Z,8.63
2022-09-12T01:51:38.972Z,8.82
2022-09-12T01:54:15.262Z,8.63
2022-09-12T01:56:43.672Z,9.95
2022-09-12T01:59:36.263Z,11.38
2022-09-12T02:02:26.135Z,13.70
2022-09-12T02:05:05.352Z,13.75
2022-09-12T02:07:37.406Z,11.02
2022-09-12T02:10:15.266Z,11.45
2022-09-12T02:12:48.523Z,12.50
2022-09-12T02:15:23.251Z,10.27
2022-09-12T02:17:51.696Z,19.75
2022-09-12T02:20:46.760Z,13.73
2022-09-12T02:23:18.259Z,15.50
2022-09-12T02:25:53.263Z,16.13
2022-09-12T02:28:30.483Z,11.77
2022-09-12T02:31:22.308Z,11.57
2022-09-12T02:33:54.889Z,11.98
2022-09-12T02:36:47.365Z,14.10
2022-09-12T02:39:19.529Z,9.52
2022-09-12T02:41:54.291Z,9.45
2022-09-12T02:44:21.632Z,15.52
2022-09-12T02:47:04.441Z,16.55
2022-09-12T02:49:38.241Z,13.38
2022-09-12T02:52:12.402Z,18.27
2022-09-12T02:54:39.754Z,13.52
2022-09-12T02:57:23.290Z,12.75
2022-09-12T02:59:58.171Z,12.45
2022-09-12T03:02:51.399Z,13.95
2022-09-12T03:05:39.172Z,15.75
2022-09-12T03:08:29.463Z,15.55
2022-09-12T03:11:12.169Z,15.98
2022-09-12T03:13:51.525Z,12.27
2022-09-12T03:16:38.232Z,16.98
2022-09-12T03:19:14.907Z,14.50
2022-09-12T03:22:07.212Z,15.57
2022-09-12T03:24:38.189Z,12.50
2022-09-12T03:27:23.190Z,15.73
2022-09-12T03:30:11.275Z,13.63
2022-09-12T03:32:55.329Z,13.52
2022-09-12T03:35:23.988Z,15.57
2022-09-12T03:37:51.911Z,17.67
2022-09-12T03:40:26.368Z,16.23
2022-09-12T03:42:53.763Z,12.15
2022-09-12T03:45:27.321Z,16.23
2022-09-12T03:47:54.564Z,19.42
2022-09-12T03:50:31.506Z,18.88
2022-09-12T03:53:02.066Z,22.02
2022-09-12T03:55:36.300Z,20.40
2022-09-12T03:58:03.534Z,16.67
2022-09-12T04:00:30.654Z,18.30
2022-09-12T04:03:04.460Z,21.40
2022-09-12T04:05:31.618Z,17.75
2022-09-12T04:07:58.783Z,17.38
2022-09-12T04:10:32.276Z,16.70
2022-09-12T04:13:06.244Z,16.40
2022-09-12T04:15:33.430Z,17.15
2022-09-12T04:18:05.609Z,13.55
2022-09-12T04:20:40.306Z,18.27
2022-09-12T04:23:07.549Z,17.55
2022-09-12T04:25:41.371Z,13.82
2022-09-12T04:28:08.563Z,18.65
2022-09-12T04:30:42.394Z,15.90
2022-09-12T04:33:16.218Z,21.45
2022-09-12T04:35:50.419Z,13.65
2022-09-12T04:38:17.624Z,19.30
2022-09-12T04:40:44.790Z,17.42
2022-09-12T04:43:18.365Z,21.70
2022-09-12T04:45:45.521Z,13.50
2022-09-12T04:48:19.306Z,16.27
2022-09-12T04:50:46.471Z,16.27
2022-09-12T04:53:20.299Z,20.92
2022-09-12T04:55:47.892Z,20.17
2022-09-12T05:00:48.957Z,19.38
2022-09-12T05:03:16.351Z,23.27
2022-09-12T05:05:53.317Z,19.55
2022-09-12T05:08:23.588Z,22.13
2022-09-12T05:10:57.356Z,17.75
2022-09-12T05:13:25.356Z,16.77
2022-09-12T05:16:02.319Z,17.65
2022-09-12T05:18:29.886Z,19.20
2022-09-12T05:23:30.728Z,18.10
2022-09-12T05:26:05.562Z,17.98
2022-09-12T05:28:33.876Z,19.92
2022-09-12T05:31:15.579Z,20.42
2022-09-12T05:33:43.848Z,23.20
2022-09-12T05:36:12.326Z,20.20
2022-09-12T05:38:46.375Z,21.90
2022-09-12T05:41:24.721Z,17.73
2022-09-12T05:44:02.472Z,17.77
2022-09-12T05:46:33.486Z,14.37
2022-09-12T05:49:11.542Z,17.38
2022-09-12T05:51:40.868Z,15.05
2022-09-12T05:54:08.975Z,19.38
2022-09-12T05:56:46.439Z,16.75
2022-09-12T05:59:15.077Z,17.75
2022-09-12T06:01:48.375Z,15.32
2022-09-12T06:04:23.765Z,18.42
2022-09-12T06:06:58.315Z,21.00
2022-09-12T06:09:25.708Z,16.13
2022-09-12T06:11:59.574Z,17.95
2022-09-12T06:14:33.335Z,17.98
2022-09-12T06:17:07.583Z,14.63
2022-09-12T06:19:34.945Z,17.23
2022-09-12T06:22:02.413Z,19.40
2022-09-12T06:24:36.356Z,16.48
2022-09-12T06:27:03.652Z,13.93
2022-09-12T06:29:39.373Z,18.17
2022-09-12T06:32:13.265Z,19.45
2022-09-12T06:34:47.599Z,15.68
2022-09-12T06:37:14.888Z,14.15
2022-09-12T06:39:42.261Z,14.48
2022-09-12T06:42:16.475Z,16.92
2022-09-12T06:44:44.265Z,12.57
2022-09-12T06:47:12.082Z,13.07
2022-09-12T06:49:45.342Z,11.63
2022-09-12T06:52:12.556Z,10.25
2022-09-12T06:54:46.395Z,13.13
2022-09-12T06:57:13.519Z,13.85
2022-09-12T06:59:40.800Z,14.23
2022-09-12T07:02:16.567Z,11.25
2022-09-12T07:04:43.774Z,11.60
2022-09-12T07:07:18.362Z,13.70
2022-09-12T07:09:45.611Z,9.90
2022-09-12T07:12:19.386Z,7.72
2022-09-12T07:14:46.626Z,8.80
2022-09-12T07:17:20.372Z,14.70
2022-09-12T07:19:47.765Z,8.90
2022-09-12T07:22:14.851Z,13.30
2022-09-12T07:24:48.556Z,8.45
2022-09-12T07:27:15.851Z,8.63
2022-09-12T07:29:44.291Z,10.07
2022-09-12T07:32:25.403Z,8.05
2022-09-12T07:34:59.299Z,10.13
2022-09-12T07:37:26.482Z,7.82
2022-09-12T07:40:00.357Z,5.35
2022-09-12T07:42:27.649Z,11.57
2022-09-12T07:45:01.420Z,6.25
2022-09-12T07:47:28.712Z,5.65
2022-09-12T07:49:56.619Z,5.57
2022-09-12T07:52:30.457Z,5.75
2022-09-12T07:54:57.656Z,5.88
2022-09-12T07:57:31.447Z,9.32
2022-09-12T07:59:58.655Z,6.50
2022-09-12T08:02:25.837Z,8.10
2022-09-12T08:05:00.388Z,9.15
2022-09-12T08:07:27.658Z,6.47
2022-09-12T08:09:54.964Z,5.13
2022-09-12T08:12:28.430Z,4.53
2022-09-12T08:14:55.654Z,7.43
2022-09-12T08:17:29.370Z,5.63
2022-09-12T08:19:57.016Z,9.20
2022-09-12T08:22:24.506Z,6.47
2022-09-12T08:24:58.556Z,5.43
2022-09-12T08:27:25.938Z,3.95
2022-09-12T08:30:12.385Z,8.65
2022-09-12T08:32:39.544Z,5.70
2022-09-12T08:35:06.869Z,7.80
2022-09-12T08:37:40.386Z,6.55
2022-09-12T08:40:08.483Z,4.80
2022-09-12T08:43:03.406Z,2.97
2022-09-12T08:45:34.130Z,6.75
2022-09-12T08:48:10.398Z,3.60
2022-09-12T08:50:37.703Z,8.80
2022-09-12T08:53:28.499Z,5.43
2022-09-12T08:55:59.598Z,2.45
2022-09-12T08:58:34.468Z,2.78
2022-09-12T09:01:01.664Z,4.05
2022-09-12T09:03:42.612Z,2.85
2022-09-12T09:06:18.284Z,3.17
2022-09-12T09:09:05.582Z,3.05
2022-09-12T09:11:45.858Z,3.88
2022-09-12T09:14:42.416Z,3.22
2022-09-12T09:17:18.292Z,3.17
2022-09-12T09:19:50.961Z,3.28
2022-09-12T09:22:33.302Z,4.22
2022-09-12T09:25:03.103Z,3.70
2022-09-12T09:27:42.304Z,4.72
2022-09-12T09:30:31.478Z,1.90
2022-09-12T09:33:07.328Z,2.05
2022-09-12T09:35:47.526Z,5.28
2022-09-12T09:38:29.324Z,4.47
2022-09-12T09:40:59.564Z,4.50
2022-09-12T09:43:36.311Z,3.33
2022-09-12T09:46:04.140Z,5.20
2022-09-12T09:48:44.337Z,3.08
2022-09-12T09:51:11.755Z,4.10
2022-09-12T09:53:45.356Z,1.83
2022-09-12T09:56:29.802Z,3.25
2022-09-12T09:59:03.485Z,3.58
2022-09-12T10:01:30.787Z,3.88
2022-09-12T10:03:58.022Z,4.75
2022-09-12T10:06:40.511Z,4.07
2022-09-12T10:09:18.136Z,9.80
2022-09-12T10:11:52.610Z,4.20
2022-09-12T10:14:32.032Z,4.10
2022-09-12T10:17:06.487Z,4.60
2022-09-12T10:19:35.420Z,5.13
2022-09-12T10:22:10.401Z,2.38
2022-09-12T10:24:41.205Z,2.65
2022-09-12T10:27:27.404Z,3.08
2022-09-12T10:29:56.434Z,2.15
2022-09-12T10:32:41.418Z,2.50
2022-09-12T10:35:29.095Z,2.22
2022-09-12T10:38:09.651Z,2.72
2022-09-12T10:40:41.517Z,1.95
2022-09-12T10:43:25.591Z,4.40
2022-09-12T10:45:52.880Z,2.47
2022-09-12T10:48:35.476Z,3.15
2022-09-12T10:51:03.429Z,3.70
2022-09-12T10:53:47.821Z,4.53
2022-09-12T10:56:17.154Z,3.55
2022-09-12T10:58:44.414Z,3.13
2022-09-12T11:01:36.476Z,3.25
2022-09-12T11:04:22.330Z,3.90
2022-09-12T11:07:14.601Z,1.83
2022-09-12T11:09:48.015Z,1.90
2022-09-12T11:12:33.637Z,2.78
2022-09-12T11:15:19.624Z,4.35
2022-09-12T11:17:59.451Z,3.95
2022-09-12T11:20:26.525Z,4.03
2022-09-12T11:23:11.671Z,5.13
2022-09-12T11:25:49.018Z,2.05
2022-09-12T11:28:22.592Z,1.67
2022-09-12T11:30:59.471Z,2.70
2022-09-12T11:33:33.544Z,3.63
2022-09-12T11:36:03.328Z,2.85
2022-09-12T11:38:54.470Z,4.30
2022-09-12T11:41:21.615Z,3.97
2022-09-12T11:44:03.627Z,7.55
2022-09-12T11:46:38.045Z,5.40
2022-09-12T11:49:22.008Z,2.13
2022-09-12T11:51:55.368Z,2.63
2022-09-12T11:54:35.623Z,5.00
2022-09-12T11:57:06.619Z,3.50
2022-09-12T11:59:51.038Z,2.30
2022-09-12T12:02:22.965Z,3.35
2022-09-12T12:05:23.466Z,3.22
2022-09-12T12:07:54.978Z,3.35
2022-09-12T12:10:34.639Z,3.28
2022-09-12T12:13:03.943Z,4.28
2022-09-12T12:15:31.736Z,3.33
2022-09-12T12:18:10.601Z,3.35
2022-09-12T12:20:37.945Z,3.25
2022-09-12T12:23:11.711Z,5.75
2022-09-12T12:25:40.576Z,2.08
2022-09-12T12:28:08.096Z,4.90
2022-09-12T12:33:15.491Z,5.15
2022-09-12T12:36:09.495Z,3.22
2022-09-12T12:38:38.243Z,4.43
2022-09-12T12:41:24.472Z,4.30
2022-09-12T12:43:52.422Z,4.20
2022-09-12T12:46:26.735Z,6.45
2022-09-12T12:48:59.095Z,3.20
2022-09-12T12:51:47.599Z,4.38
2022-09-12T12:54:32.223Z,2.88
2022-09-12T12:57:10.642Z,1.70
2022-09-12T12:59:37.887Z,3.10
2022-09-12T13:02:05.610Z,5.60
2022-09-12T13:04:39.740Z,7.45
2022-09-12T13:07:08.881Z,1.85
2022-09-12T13:09:54.572Z,2.67
2022-09-12T13:12:30.093Z,3.13
2022-09-12T13:15:05.634Z,3.40
2022-09-12T13:17:38.885Z,1.80
2022-09-12T13:20:28.368Z,1.73
2022-09-12T13:22:56.711Z,4.45
2022-09-12T13:28:27.529Z,2.25
2022-09-12T13:31:16.034Z,3.17
2022-09-12T13:33:58.619Z,1.92
2022-09-12T13:36:28.516Z,3.33
2022-09-12T13:39:20.681Z,3.10
2022-09-12T13:41:53.863Z,2.63
2022-09-12T13:44:29.820Z,5.47
2022-09-12T13:46:59.654Z,4.43
2022-09-12T13:49:44.688Z,2.83
2022-09-12T13:52:20.638Z,4.75
2022-09-12T13:54:56.516Z,1.95
2022-09-12T13:57:41.392Z,6.43
2022-09-12T14:00:20.698Z,3.15
2022-09-12T14:02:48.646Z,1.58
2022-09-12T14:05:31.729Z,1.40
2022-09-12T14:08:01.436Z,5.72
2022-09-12T14:10:42.655Z,2.40
2022-09-12T14:13:14.636Z,2.47
2022-09-12T14:15:51.621Z,2.15
2022-09-12T14:18:29.443Z,3.30
2022-09-12T14:20:58.445Z,4.63
2022-09-12T14:23:34.595Z,3.72
2022-09-12T14:26:03.615Z,3.10
2022-09-12T14:28:31.232Z,1.55
2022-09-12T14:31:09.627Z,2.22
2022-09-12T14:33:50.553Z,3.75
2022-09-12T14:36:25.531Z,3.08
2022-09-12T14:39:01.675Z,2.67
2022-09-12T14:41:37.719Z,2.72
2022-09-12T14:44:07.744Z,3.22
2022-09-12T14:46:51.560Z,3.10
2022-09-12T14:49:22.463Z,5.68
2022-09-12T14:51:58.674Z,2.33
2022-09-12T14:54:29.222Z,5.85
2022-09-12T14:56:57.562Z,2.10
2022-09-12T14:59:37.550Z,2.42
2022-09-12T15:02:22.805Z,2.78
2022-09-12T15:04:57.590Z,2.25
2022-09-12T15:07:33.880Z,4.55
2022-09-12T15:10:08.569Z,2.72
2022-09-12T15:12:35.655Z,3.10
2022-09-12T15:15:22.531Z,3.58
2022-09-12T15:20:30.720Z,2.58
2022-09-12T15:22:57.894Z,2.72
2022-09-12T15:25:25.170Z,3.55
2022-09-12T15:28:00.568Z,2.75
2022-09-12T15:30:27.809Z,2.70
2022-09-12T15:33:01.552Z,2.75
2022-09-12T15:35:33.823Z,2.88
2022-09-12T15:38:07.764Z,3.03
2022-09-12T15:40:34.922Z,2.97
2022-09-12T15:43:02.871Z,4.40
2022-09-12T15:45:38.647Z,3.17
2022-09-12T15:48:06.355Z,2.22
2022-09-12T15:50:40.640Z,5.63
2022-09-12T15:53:07.820Z,2.50
2022-09-12T15:55:41.567Z,2.35
2022-09-12T15:58:09.157Z,4.20
2022-09-12T16:03:20.913Z,4.68
2022-09-12T16:05:54.554Z,3.05
2022-09-12T16:08:21.794Z,1.85
2022-09-12T16:10:57.741Z,2.08
2022-09-12T16:13:24.973Z,3.22
2022-09-12T16:15:52.870Z,3.47
2022-09-12T16:18:26.713Z,6.03
2022-09-12T16:21:15.760Z,11.93
2022-09-12T16:23:53.583Z,3.80
2022-09-12T16:26:21.403Z,2.90
2022-09-12T16:28:48.801Z,6.93
2022-09-12T16:34:05.485Z,2.80
2022-09-12T16:36:39.575Z,2.67
2022-09-12T16:39:13.496Z,2.55
2022-09-12T16:41:49.726Z,6.60
2022-09-12T16:44:16.908Z,2.53
2022-09-12T16:46:44.124Z,3.72
2022-09-12T16:49:18.954Z,3.30
2022-09-12T16:51:47.670Z,5.65
2022-09-12T16:54:28.606Z,6.00
2022-09-12T16:57:02.491Z,5.57
2022-09-12T16:59:29.672Z,4.18
2022-09-12T17:02:03.537Z,3.00
2022-09-12T17:04:30.884Z,5.18
2022-09-12T17:07:05.521Z,2.50
2022-09-12T17:09:32.790Z,5.00
2022-09-12T17:12:07.493Z,3.55
2022-09-12T17:14:34.708Z,8.63
2022-09-12T17:17:08.700Z,4.40
2022-09-12T17:19:55.635Z,2.95
2022-09-12T17:22:29.660Z,4.88
2022-09-12T17:24:56.983Z,4.07
2022-09-12T17:27:24.241Z,2.60
2022-09-12T17:29:57.654Z,5.90
2022-09-12T17:32:24.783Z,4.53
2022-09-12T17:34:58.608Z,3.38
2022-09-12T17:37:25.803Z,3.58
2022-09-12T17:40:00.073Z,3.05
2022-09-12T17:42:27.285Z,3.72
2022-09-12T17:44:55.704Z,5.75
2022-09-12T17:47:29.680Z,3.28
2022-09-12T17:50:27.851Z,4.70
2022-09-12T17:52:51.535Z,5.05
2022-09-12T17:55:25.566Z,4.68
2022-09-12T17:57:52.973Z,6.22
2022-09-12T18:00:46.674Z,2.83
2022-09-12T18:03:14.409Z,4.50
2022-09-12T18:05:54.572Z,4.70
2022-09-12T18:08:28.728Z,5.15
2022-09-12T18:11:03.682Z,9.73
2022-09-12T18:13:38.604Z,2.85
2022-09-12T18:16:10.298Z,3.85
2022-09-12T18:18:44.818Z,4.38
2022-09-12T18:21:19.857Z,3.03
2022-09-12T18:23:54.753Z,3.03
2022-09-12T18:26:22.715Z,2.58
2022-09-12T18:28:56.814Z,4.43
2022-09-12T18:31:24.968Z,3.90
2022-09-12T18:33:52.436Z,4.97
2022-09-12T18:36:27.603Z,2.22
2022-09-12T18:39:01.564Z,4.32
2022-09-12T18:41:29.127Z,5.30
2022-09-12T18:46:30.735Z,4.72
2022-09-12T18:49:04.534Z,2.97
2022-09-12T18:51:34.155Z,7.72
2022-09-12T18:54:09.676Z,4.38
2022-09-12T18:56:38.486Z,4.60
2022-09-12T18:59:06.737Z,3.15
2022-09-12T19:01:42.654Z,6.13
2022-09-12T19:04:10.347Z,4.53
2022-09-12T19:09:11.567Z,4.28
2022-09-12T19:11:46.622Z,3.88
2022-09-12T19:14:13.804Z,4.00
2022-09-12T19:16:47.632Z,3.50
2022-09-12T19:19:14.880Z,3.53
2022-09-12T19:21:55.706Z,4.47
2022-09-12T19:24:29.730Z,4.55
2022-09-12T19:27:03.787Z,3.65
2022-09-12T19:29:45.638Z,5.05
2022-09-12T19:32:25.731Z,5.93
2022-09-12T19:34:52.981Z,3.58
2022-09-12T19:37:26.643Z,3.80
2022-09-12T19:39:53.863Z,5.95
2022-09-12T19:42:27.725Z,4.95
2022-09-12T19:44:55.883Z,4.20
2022-09-12T19:47:31.655Z,6.38
2022-09-12T19:49:58.828Z,7.95
2022-09-12T19:52:32.633Z,5.22
2022-09-12T19:54:59.879Z,4.80
2022-09-12T19:57:33.754Z,3.35
2022-09-12T20:00:00.928Z,6.00
2022-09-12T20:02:35.813Z,8.63
2022-09-12T20:05:03.116Z,6.75
2022-09-12T20:07:36.743Z,5.10
2022-09-12T20:10:03.919Z,4.72
2022-09-12T20:12:37.685Z,8.20
2022-09-12T20:15:05.324Z,4.97
2022-09-12T20:20:06.962Z,5.95
2022-09-12T20:22:40.688Z,6.20
2022-09-12T20:25:15.660Z,3.50
2022-09-12T20:27:42.768Z,7.15
2022-09-12T20:30:16.676Z,5.40
2022-09-12T20:32:43.853Z,6.18
2022-09-12T20:35:11.253Z,4.50
2022-09-12T20:37:46.786Z,6.70
2022-09-12T20:40:14.061Z,4.45
2022-09-12T20:42:41.302Z,5.00
2022-09-12T20:45:14.702Z,4.25
2022-09-12T20:47:41.821Z,9.40
2022-09-12T20:50:09.171Z,4.47
2022-09-12T20:52:42.732Z,6.40
2022-09-12T20:55:16.585Z,5.70
2022-09-12T20:57:50.692Z,7.53
2022-09-12T21:00:24.636Z,4.63
2022-09-12T21:02:52.552Z,6.45
2022-09-12T21:05:19.686Z,5.63
2022-09-12T21:07:53.770Z,5.32
2022-09-12T21:10:20.966Z,4.43
2022-09-12T21:12:54.873Z,6.03
2022-09-12T21:15:22.069Z,5.43
2022-09-12T21:17:49.194Z,9.40
2022-09-12T21:20:22.890Z,4.78
2022-09-12T21:22:50.229Z,5.60
2022-09-12T21:25:17.347Z,4.63
2022-09-12T21:27:50.768Z,8.07
2022-09-12T21:30:24.603Z,10.25
2022-09-12T21:32:51.831Z,5.32
2022-09-12T21:35:25.641Z,6.45
2022-09-12T21:37:53.328Z,4.57
2022-09-12T21:40:20.591Z,6.55
2022-09-12T21:42:56.753Z,6.20
2022-09-12T21:45:23.941Z,3.45
2022-09-12T21:47:57.827Z,7.05
2022-09-12T21:50:25.072Z,8.02
2022-09-12T21:52:52.185Z,6.13
2022-09-12T21:55:26.717Z,3.97
2022-09-12T21:57:54.449Z,4.00
2022-09-12T22:00:28.740Z,6.90
2022-09-12T22:02:56.257Z,5.90
2022-09-12T22:05:30.705Z,5.13
2022-09-12T22:07:58.848Z,5.47
2022-09-12T22:10:39.741Z,6.55
2022-09-12T22:13:07.063Z,8.55
2022-09-12T22:15:40.566Z,6.18
2022-09-12T22:18:14.758Z,6.25
2022-09-12T22:21:01.611Z,9.85
2022-09-12T22:23:54.855Z,6.30
2022-09-12T22:26:22.183Z,4.70
2022-09-12T22:28:56.691Z,5.97
2022-09-12T22:31:24.015Z,6.28
2022-09-12T22:33:57.849Z,7.82
2022-09-12T22:36:29.239Z,6.75
2022-09-12T22:39:04.917Z,4.57
2022-09-12T22:41:32.378Z,5.97
2022-09-12T22:43:59.820Z,5.03
2022-09-12T22:46:33.852Z,8.73
2022-09-12T22:49:01.186Z,5.25
2022-09-12T22:51:28.449Z,6.65
2022-09-12T22:54:02.891Z,7.55
2022-09-12T22:56:30.184Z,7.15
2022-09-12T22:58:57.265Z,5.72
2022-09-12T23:01:30.729Z,7.30
2022-09-12T23:03:58.505Z,7.07
2022-09-12T23:06:32.829Z,11.48
2022-09-12T23:09:00.067Z,11.10
2022-09-12T23:11:27.746Z,15.38
2022-09-12T23:16:32.005Z,9.18
2022-09-12T23:19:05.759Z,7.85
2022-09-12T23:21:39.745Z,10.10
2022-09-12T23:24:13.698Z,6.40
2022-09-12T23:26:40.995Z,9.07
2022-09-12T23:29:14.795Z,10.85
2022-09-12T23:31:41.963Z,6.60
2022-09-12T23:34:10.360Z,9.48
2022-09-12T23:36:43.765Z,8.30
2022-09-12T23:39:17.647Z,10.15
2022-09-12T23:41:51.745Z,9.32
2022-09-12T23:44:25.658Z,7.18
2022-09-12T23:46:59.765Z,7.57
2022-09-12T23:49:33.672Z,8.45
2022-09-12T23:52:00.939Z,9.50
2022-09-12T23:54:28.223Z,9.38
2022-09-12T23:57:01.780Z,7.10
2022-09-12T23:59:30.977Z,9.70
